Аэропорт: Бесовец. Петрозаводск

ICAO: ULPB

METAR:
2018/05/20 23:00
ULPB 202300Z AUTO 15001MPS 9999 // NSC 09/04 Q1024 RMK QFE764/1019
METAR:
Информация по данной станции не доступна